Rechercher aéroport 
image banner adimage banner adimage banner ad
image banner ad

1O3 - Lodi

Situé à Lodi, United States

ICAO - 1O3, IATA -

Données fournies par Airmate  

Information générale

Coordonnées: N38°12'9" W121°16'9"
Élévation : 60 feet MSL.
Variation magnétique : 16° East
Voir autres Aéroports à California

Données opérationnelles

Special qualification required
Heure actuelle UTC:
Heure actuelle locale:
Météo à : KSCK - Stockton Metropolitan ( 34 km )
METAR: KSCK 291555Z 00000KT 10SM CLR 24/14 A2992 RMK AO2 SLP130 T02390139
TAF: KSCK 291132Z 2912/3012 32010KT P6SM FEW250
Voir NOTAMs / SUP AIP / TFR affectant cet aéroport [VIEW]
Fréquences de communication: [VIEW]

Pistes:

Identifiant RWYQFULongueur (ft)Largeur (ft)SurfaceLDA (ft)
0892°354740ASPH
26272°354740ASPH
12135°197925ASPH
30315°197925ASPH

Coordonnées de l'aéroport

Adresse: Lodi United States

Autres services d'aviation

Écoles de pilotage

Cfi Academy

Cfi Academy
admin@cfiacademy.com+1(916)209-0234

Vue satellite de 1O3